createdAt,value
2018-01-01T00:01:41.436Z,213.70
2018-01-01T00:04:08.890Z,217.83
2018-01-01T00:06:37.110Z,183.13
2018-01-01T00:09:04.567Z,185.47
2018-01-01T00:11:32.023Z,190.57
2018-01-01T00:13:59.519Z,219.13
2018-01-01T00:16:26.991Z,187.40
2018-01-01T00:18:54.446Z,177.03
2018-01-01T00:21:21.900Z,187.53
2018-01-01T00:23:49.369Z,252.33
2018-01-01T00:26:16.815Z,126.67
2018-01-01T00:28:44.281Z,247.17
2018-01-01T00:31:11.730Z,102.50
2018-01-01T00:33:39.180Z,92.40
2018-01-01T00:36:06.634Z,544.83
2018-01-01T00:38:34.078Z,124.60
2018-01-01T00:41:01.526Z,99.43
2018-01-01T00:43:29.739Z,125.20
2018-01-01T00:45:57.202Z,123.27
2018-01-01T00:48:24.640Z,121.23
2018-01-01T00:50:52.102Z,117.97
2018-01-01T00:53:19.561Z,4.93
2018-01-01T00:55:47.019Z,125.93
2018-01-01T00:58:14.454Z,188.57
2018-01-01T01:00:42.670Z,202.23
2018-01-01T01:03:10.112Z,191.80
2018-01-01T01:05:37.562Z,246.97
2018-01-01T01:08:05.013Z,239.63
2018-01-01T01:10:32.462Z,220.93
2018-01-01T01:12:59.907Z,169.80
2018-01-01T01:15:28.127Z,197.67
2018-01-01T01:17:55.564Z,19.03
2018-01-01T01:20:23.015Z,14.57
2018-01-01T01:22:50.458Z,17.80
2018-01-01T01:25:17.911Z,195.07
2018-01-01T01:27:45.350Z,149.17
2018-01-01T01:30:13.567Z,166.33
2018-01-01T01:32:41.007Z,34.17
2018-01-01T01:35:08.452Z,15.73
2018-01-01T01:37:36.653Z,15.20
2018-01-01T01:40:04.098Z,11.83
2018-01-01T01:42:31.550Z,12.73
2018-01-01T01:44:59.019Z,21.10
2018-01-01T01:47:26.459Z,336.80
2018-01-01T01:49:53.930Z,409.13
2018-01-01T01:52:21.378Z,240.27
2018-01-01T01:54:48.847Z,281.03
2018-01-01T01:57:16.334Z,329.77
2018-01-01T01:59:43.796Z,307.70
2018-01-01T02:02:11.243Z,259.23
2018-01-01T02:04:38.695Z,618.87
2018-01-01T02:07:06.134Z,578.67
2018-01-01T02:09:33.574Z,683.37
2018-01-01T02:12:01.026Z,723.40
2018-01-01T02:14:29.242Z,714.50
2018-01-01T02:16:56.714Z,699.30
2018-01-01T02:19:24.168Z,363.40
2018-01-01T02:21:51.623Z,727.07
2018-01-01T02:24:19.071Z,699.47
2018-01-01T02:26:46.520Z,162.47
2018-01-01T02:29:13.967Z,34.10
2018-01-01T02:31:41.417Z,15.37
2018-01-01T02:34:08.851Z,27.27
2018-01-01T02:36:37.074Z,22.50
2018-01-01T02:39:04.535Z,506.47
2018-01-01T02:41:31.983Z,23.83
2018-01-01T02:43:59.408Z,27.10
2018-01-01T02:46:27.617Z,15.70
2018-01-01T02:48:55.041Z,17.80
2018-01-01T02:51:22.478Z,19.87
2018-01-01T02:53:50.683Z,20.00
2018-01-01T02:56:18.121Z,176.87
2018-01-01T02:58:45.562Z,225.23
2018-01-01T03:01:12.998Z,18.97
2018-01-01T03:03:40.434Z,60.07
2018-01-01T03:06:07.882Z,166.03
2018-01-01T03:08:35.309Z,19.60
2018-01-01T03:11:02.751Z,23.60
2018-01-01T03:13:30.955Z,655.47
2018-01-01T03:15:58.388Z,15.37
2018-01-01T03:18:26.584Z,18.30
2018-01-01T03:20:54.018Z,18.93
2018-01-01T03:23:22.223Z,15.30
2018-01-01T03:25:49.680Z,11.97
2018-01-01T03:28:17.109Z,17.03
2018-01-01T03:30:45.322Z,533.50
2018-01-01T03:33:12.766Z,7.80
2018-01-01T03:35:40.204Z,4.67
2018-01-01T03:38:07.641Z,15.03
2018-01-01T03:40:35.854Z,15.73
2018-01-01T03:43:03.313Z,100.40
2018-01-01T03:45:30.753Z,45.03
2018-01-01T03:47:58.204Z,6.67
2018-01-01T03:50:26.399Z,7.07
2018-01-01T03:52:53.835Z,5.07
2018-01-01T03:55:22.046Z,6.20
2018-01-01T03:57:49.477Z,8.93
2018-01-01T04:00:16.905Z,8.23
2018-01-01T04:02:45.119Z,3.57
2018-01-01T04:05:12.545Z,10.70
2018-01-01T04:07:40.749Z,2.70
2018-01-01T04:10:08.182Z,2.10
2018-01-01T04:12:36.390Z,3.37
2018-01-01T04:15:03.823Z,4.23
2018-01-01T04:17:31.254Z,5.13
2018-01-01T04:19:59.458Z,5.90
2018-01-01T04:22:27.657Z,4.33
2018-01-01T04:24:55.089Z,104.83
2018-01-01T04:27:22.554Z,3.10
2018-01-01T04:29:49.982Z,2.43
2018-01-01T04:32:18.202Z,435.30
2018-01-01T04:34:45.650Z,323.30
2018-01-01T04:37:13.110Z,34.37
2018-01-01T04:39:40.560Z,143.87
2018-01-01T04:42:08.002Z,621.13
2018-01-01T04:44:35.442Z,105.73
2018-01-01T04:47:03.647Z,96.50
2018-01-01T04:49:31.850Z,5.53
2018-01-01T04:51:59.297Z,498.77
2018-01-01T04:54:26.734Z,97.73
2018-01-01T04:56:54.185Z,1.60
2018-01-01T04:59:21.605Z,16.70
2018-01-01T05:01:49.821Z,184.47
2018-01-01T05:04:17.289Z,391.00
2018-01-01T05:06:44.718Z,29.30
2018-01-01T05:09:12.155Z,16.00
2018-01-01T05:11:40.359Z,8.13
2018-01-01T05:14:08.547Z,7.37
2018-01-01T05:16:35.990Z,106.83
2018-01-01T05:19:03.426Z,203.73
2018-01-01T05:21:31.629Z,5.63
2018-01-01T05:23:59.072Z,614.33
2018-01-01T05:26:26.529Z,476.13
2018-01-01T05:28:53.955Z,3.63
2018-01-01T05:31:21.410Z,674.30
2018-01-01T05:33:48.838Z,25.03
2018-01-01T05:36:16.289Z,662.67
2018-01-01T05:38:43.729Z,753.10
2018-01-01T05:41:11.174Z,6.77
2018-01-01T05:43:38.617Z,2.03
2018-01-01T05:46:06.811Z,4.93
2018-01-01T05:48:34.245Z,2.40
2018-01-01T05:51:01.696Z,3.20
2018-01-01T05:53:29.884Z,4.53
2018-01-01T05:55:57.322Z,1.83
2018-01-01T05:58:25.517Z,3.50
2018-01-01T06:00:52.951Z,1.40
2018-01-01T06:03:21.166Z,678.27
2018-01-01T06:05:48.600Z,153.10
2018-01-01T06:08:16.051Z,126.40
2018-01-01T06:10:44.252Z,5.80
2018-01-01T06:13:11.702Z,57.57
2018-01-01T06:15:39.138Z,758.53
2018-01-01T06:18:07.363Z,657.87
2018-01-01T06:20:34.801Z,535.30
2018-01-01T06:23:02.260Z,629.57
2018-01-01T06:25:29.689Z,120.73
2018-01-01T06:27:57.153Z,578.40
2018-01-01T06:30:24.594Z,181.43
2018-01-01T06:32:52.805Z,728.73
2018-01-01T06:35:20.246Z,648.33
2018-01-01T06:37:47.690Z,305.23
2018-01-01T06:40:15.134Z,667.13
2018-01-01T06:42:43.352Z,568.77
2018-01-01T06:45:10.803Z,742.43
2018-01-01T06:47:38.257Z,725.03
2018-01-01T06:50:05.693Z,342.37
2018-01-01T06:52:33.137Z,741.93
2018-01-01T06:55:01.377Z,668.67
2018-01-01T06:57:28.834Z,681.40
2018-01-01T06:59:56.282Z,676.10
2018-01-01T07:02:23.733Z,670.55
2018-01-01T07:04:51.177Z,700.47
2018-01-01T07:07:18.646Z,695.07
2018-01-01T07:09:46.103Z,691.65
2018-01-01T07:12:13.571Z,578.75
2018-01-01T07:14:41.026Z,673.53
2018-01-01T07:17:08.477Z,679.62
2018-01-01T07:19:35.921Z,673.57
2018-01-01T07:22:03.376Z,681.17
2018-01-01T07:24:30.820Z,678.67
2018-01-01T07:26:58.269Z,686.40
2018-01-01T07:29:25.709Z,695.87
2018-01-01T07:31:53.956Z,695.93
2018-01-01T07:34:21.402Z,689.63
2018-01-01T07:36:48.858Z,707.50
2018-01-01T07:39:16.306Z,692.70
2018-01-01T07:41:43.759Z,680.03
2018-01-01T07:44:11.210Z,680.37
2018-01-01T07:46:38.653Z,683.23
2018-01-01T07:49:06.133Z,687.23
2018-01-01T07:51:33.581Z,683.60
2018-01-01T07:54:01.037Z,695.30
2018-01-01T07:56:28.492Z,697.47
2018-01-01T07:58:55.954Z,698.37
2018-01-01T08:01:23.394Z,677.43
2018-01-01T08:03:50.861Z,676.37
2018-01-01T08:06:18.302Z,671.67
2018-01-01T08:08:45.775Z,672.87
2018-01-01T08:11:13.223Z,670.03
2018-01-01T08:13:40.685Z,668.27
2018-01-01T08:16:08.130Z,667.23
2018-01-01T08:18:35.578Z,669.67
2018-01-01T08:21:03.026Z,671.97
2018-01-01T08:23:31.246Z,653.37
2018-01-01T08:25:58.688Z,656.33
2018-01-01T08:28:26.143Z,343.77
2018-01-01T08:30:53.565Z,1.73
2018-01-01T08:33:21.789Z,2.33
2018-01-01T08:35:49.227Z,3.80
2018-01-01T08:38:16.690Z,1.50
2018-01-01T08:40:44.114Z,2.27
2018-01-01T08:43:12.323Z,3.63
2018-01-01T08:45:39.746Z,1.97
2018-01-01T08:48:07.941Z,3.80
2018-01-01T08:50:35.364Z,3.07
2018-01-01T08:53:02.799Z,2.37
2018-01-01T08:55:30.231Z,5.10
2018-01-01T08:57:57.667Z,3.90
2018-01-01T09:00:25.089Z,3.40
2018-01-01T09:02:52.522Z,2.63
2018-01-01T09:05:19.950Z,2.33
2018-01-01T09:07:47.395Z,5.60
2018-01-01T09:10:14.826Z,8.00
2018-01-01T09:12:43.032Z,3.90
2018-01-01T09:15:10.466Z,3.77
2018-01-01T09:17:38.669Z,7.10
2018-01-01T09:20:06.098Z,5.00
2018-01-01T09:22:34.290Z,8.23
2018-01-01T09:25:01.721Z,3.93
2018-01-01T09:27:29.917Z,6.43
2018-01-01T09:29:57.355Z,7.37
2018-01-01T09:32:25.545Z,6.50
2018-01-01T09:34:53.756Z,3.93
2018-01-01T09:37:21.724Z,3.43
2018-01-01T09:39:49.166Z,11.80
2018-01-01T09:42:16.590Z,4.43
2018-01-01T09:44:44.796Z,6.50
2018-01-01T09:47:12.218Z,5.00
2018-01-01T09:49:40.430Z,6.30
2018-01-01T09:52:07.857Z,6.63
2018-01-01T09:54:35.289Z,5.30
2018-01-01T09:57:02.721Z,7.93
2018-01-01T09:59:30.165Z,4.70
2018-01-01T10:01:57.594Z,4.00
2018-01-01T10:04:25.029Z,10.43
2018-01-01T10:06:53.227Z,8.03
2018-01-01T10:09:20.657Z,4.47
2018-01-01T10:11:48.849Z,8.33
2018-01-01T10:14:16.281Z,6.50
2018-01-01T10:16:44.481Z,3.57
2018-01-01T10:19:11.945Z,11.33
2018-01-01T10:21:40.100Z,4.90
2018-01-01T10:24:08.293Z,6.80
2018-01-01T10:26:35.731Z,4.63
2018-01-01T10:29:03.935Z,3.03
2018-01-01T10:31:31.361Z,3.40
2018-01-01T10:33:59.558Z,4.77
2018-01-01T10:36:26.977Z,5.40
2018-01-01T10:38:54.416Z,3.77
2018-01-01T10:41:21.837Z,4.00
2018-01-01T10:43:49.286Z,10.10
2018-01-01T10:46:16.712Z,5.93
2018-01-01T10:48:44.905Z,4.90
2018-01-01T10:51:12.492Z,5.30
2018-01-01T10:53:39.937Z,9.00
2018-01-01T10:56:07.362Z,3.17
2018-01-01T10:58:35.563Z,4.53
2018-01-01T11:01:02.993Z,4.10
2018-01-01T11:03:31.198Z,4.30
2018-01-01T11:05:59.395Z,9.60
2018-01-01T11:08:26.821Z,2.53
2018-01-01T11:10:54.254Z,4.40
2018-01-01T11:13:22.456Z,2.20
2018-01-01T11:15:49.890Z,147.90
2018-01-01T11:18:18.111Z,3.80
2018-01-01T11:20:45.541Z,9.93
2018-01-01T11:23:12.966Z,2.20
2018-01-01T11:25:41.165Z,11.47
2018-01-01T11:28:08.590Z,2.00
2018-01-01T11:30:36.034Z,1.03
2018-01-01T11:33:03.461Z,4.73
2018-01-01T11:35:30.893Z,3.07
2018-01-01T11:37:58.333Z,1.60
2018-01-01T11:40:26.535Z,2.90
2018-01-01T11:42:53.959Z,2.83
2018-01-01T11:45:22.153Z,1.37
2018-01-01T11:47:49.574Z,1.70
2018-01-01T11:50:17.014Z,1.80
2018-01-01T11:52:44.441Z,1.93
2018-01-01T11:55:12.655Z,1.70
2018-01-01T11:57:40.069Z,1.60
2018-01-01T12:00:07.507Z,7.60
2018-01-01T12:02:34.938Z,1.50
2018-01-01T12:05:02.377Z,1.60
2018-01-01T12:07:29.810Z,1.60
2018-01-01T12:09:57.249Z,1.57
2018-01-01T12:12:24.702Z,1.63
2018-01-01T12:14:52.878Z,1.90
2018-01-01T12:17:20.306Z,2.53
2018-01-01T12:19:48.511Z,2.47
2018-01-01T12:22:15.938Z,3.57
2018-01-01T12:24:44.169Z,1.70
2018-01-01T12:27:11.606Z,12.07
2018-01-01T12:29:39.040Z,4.50
2018-01-01T12:32:06.475Z,2.80
2018-01-01T12:34:34.680Z,2.17
2018-01-01T12:37:02.117Z,3.63
2018-01-01T12:39:30.309Z,1.97
2018-01-01T12:41:57.758Z,8.03
2018-01-01T12:44:25.205Z,2.70
2018-01-01T12:46:53.408Z,5.00
2018-01-01T12:49:20.847Z,3.50
2018-01-01T12:51:48.274Z,3.27
2018-01-01T12:54:15.713Z,2.27
2018-01-01T12:56:43.142Z,1.97
2018-01-01T12:59:10.574Z,2.00
2018-01-01T13:01:38.014Z,4.03
2018-01-01T13:04:05.441Z,1.73
2018-01-01T13:06:32.878Z,1.73
2018-01-01T13:09:00.303Z,3.20
2018-01-01T13:11:27.745Z,8.10
2018-01-01T13:13:55.926Z,7.57
2018-01-01T13:16:23.358Z,2.30
2018-01-01T13:18:50.786Z,8.40
2018-01-01T13:21:18.238Z,5.23
2018-01-01T13:23:45.668Z,4.73
2018-01-01T13:26:13.106Z,4.13
2018-01-01T13:28:41.333Z,7.47
2018-01-01T13:31:08.761Z,5.27
2018-01-01T13:33:36.196Z,2.10
2018-01-01T13:36:03.644Z,2.10
2018-01-01T13:38:31.834Z,3.27
2018-01-01T13:40:59.270Z,6.60
2018-01-01T13:43:27.508Z,7.27
2018-01-01T13:45:54.946Z,6.27
2018-01-01T13:48:22.369Z,6.30
2018-01-01T13:50:50.566Z,2.30
2018-01-01T13:53:18.000Z,4.70
2018-01-01T13:55:46.217Z,347.87
2018-01-01T13:58:13.658Z,607.00
2018-01-01T14:00:41.106Z,506.90
2018-01-01T14:03:08.598Z,98.93
2018-01-01T14:05:35.994Z,117.53
2018-01-01T14:08:04.244Z,2.13
2018-01-01T14:10:31.677Z,2.60
2018-01-01T14:12:59.097Z,1.20
2018-01-01T14:15:26.542Z,290.20
2018-01-01T14:17:54.752Z,40.17
2018-01-01T14:20:22.201Z,3.10
2018-01-01T14:22:49.638Z,293.50
2018-01-01T14:25:17.848Z,466.37
2018-01-01T14:27:45.304Z,637.33
2018-01-01T14:30:12.742Z,278.87
2018-01-01T14:32:40.178Z,489.13
2018-01-01T14:35:08.389Z,647.27
2018-01-01T14:37:35.830Z,652.77
2018-01-01T14:40:03.287Z,703.97
2018-01-01T14:42:30.731Z,699.37
2018-01-01T14:44:58.186Z,573.10
2018-01-01T14:47:25.621Z,475.97
2018-01-01T14:49:53.842Z,649.07
2018-01-01T14:52:21.293Z,561.53
2018-01-01T14:54:48.742Z,531.03
2018-01-01T14:57:16.186Z,484.97
2018-01-01T14:59:43.633Z,539.90
2018-01-01T15:02:11.842Z,555.70
2018-01-01T15:04:39.292Z,522.87
2018-01-01T15:07:06.753Z,521.97
2018-01-01T15:09:34.189Z,568.13
2018-01-01T15:12:01.641Z,572.10
2018-01-01T15:14:29.860Z,625.20
2018-01-01T15:16:57.310Z,659.67
2018-01-01T15:19:25.543Z,595.80
2018-01-01T15:21:53.756Z,538.83
2018-01-01T15:24:21.205Z,551.40
2018-01-01T15:26:48.661Z,457.17
2018-01-01T15:29:16.107Z,499.73
2018-01-01T15:31:43.555Z,529.90
2018-01-01T15:34:11.753Z,601.37
2018-01-01T15:36:39.202Z,587.33
2018-01-01T15:39:06.637Z,559.33
2018-01-01T15:41:34.849Z,602.10
2018-01-01T15:44:02.294Z,590.33
2018-01-01T15:46:29.751Z,541.00
2018-01-01T15:48:57.186Z,549.07
2018-01-01T15:51:24.636Z,611.00
2018-01-01T15:53:52.842Z,560.70
2018-01-01T15:56:20.294Z,585.27
2018-01-01T15:58:47.733Z,585.40
2018-01-01T16:01:15.950Z,566.60
2018-01-01T16:03:43.392Z,595.90
2018-01-01T16:06:11.614Z,566.47
2018-01-01T16:08:39.051Z,613.03
2018-01-01T16:11:06.501Z,609.20
2018-01-01T16:13:33.938Z,582.70
2018-01-01T16:16:01.409Z,571.73
2018-01-01T16:18:28.847Z,502.43
2018-01-01T16:20:56.297Z,342.97
2018-01-01T16:23:23.737Z,298.90
2018-01-01T16:25:51.957Z,246.20
2018-01-01T16:28:19.398Z,439.27
2018-01-01T16:30:46.850Z,430.93
2018-01-01T16:33:14.287Z,484.77
2018-01-01T16:35:41.732Z,538.90
2018-01-01T16:38:09.936Z,539.40
2018-01-01T16:40:37.382Z,530.50
2018-01-01T16:43:04.821Z,493.73
2018-01-01T16:45:33.039Z,559.27
2018-01-01T16:48:00.486Z,561.97
2018-01-01T16:50:27.953Z,577.63
2018-01-01T16:52:55.385Z,583.03
2018-01-01T16:55:22.821Z,537.80
2018-01-01T16:57:51.032Z,552.83
2018-01-01T17:00:18.478Z,561.93
2018-01-01T17:02:45.925Z,527.77
2018-01-01T17:05:13.370Z,478.23
2018-01-01T17:07:41.581Z,494.67
2018-01-01T17:10:09.022Z,474.97
2018-01-01T17:12:36.489Z,472.97
2018-01-01T17:15:03.947Z,565.10
2018-01-01T17:17:31.398Z,572.57
2018-01-01T17:19:58.831Z,522.27
2018-01-01T17:22:26.283Z,505.67
2018-01-01T17:24:54.482Z,517.33
2018-01-01T17:27:21.925Z,539.23
2018-01-01T17:29:49.363Z,564.87
2018-01-01T17:32:17.585Z,580.70
2018-01-01T17:34:45.038Z,389.60
2018-01-01T17:37:12.477Z,335.73
2018-01-01T17:39:39.920Z,479.67
2018-01-01T17:42:08.138Z,491.60
2018-01-01T17:44:35.594Z,470.13
2018-01-01T17:47:03.038Z,437.67
2018-01-01T17:49:30.482Z,354.60
2018-01-01T17:51:57.934Z,477.93
2018-01-01T17:54:25.370Z,467.90
2018-01-01T17:56:53.591Z,503.03
2018-01-01T17:59:21.053Z,472.40
2018-01-01T18:01:48.501Z,451.53
2018-01-01T18:04:15.955Z,448.03
2018-01-01T18:06:43.410Z,480.60
2018-01-01T18:09:10.854Z,471.70
2018-01-01T18:11:38.309Z,442.20
2018-01-01T18:14:05.750Z,448.27
2018-01-01T18:16:33.961Z,448.47
2018-01-01T18:19:01.407Z,473.07
2018-01-01T18:21:28.854Z,459.30
2018-01-01T18:23:56.310Z,476.40
2018-01-01T18:26:23.758Z,487.33
2018-01-01T18:28:51.193Z,462.63
2018-01-01T18:31:19.409Z,438.93
2018-01-01T18:33:46.853Z,446.37
2018-01-01T18:36:14.325Z,444.33
2018-01-01T18:38:41.769Z,419.87
2018-01-01T18:41:09.234Z,426.10
2018-01-01T18:43:36.697Z,410.90
2018-01-01T18:46:04.139Z,433.00
2018-01-01T18:48:31.592Z,455.40
2018-01-01T18:50:59.043Z,449.10
2018-01-01T18:53:27.263Z,458.70
2018-01-01T18:55:54.704Z,449.23
2018-01-01T18:58:22.163Z,450.77
2018-01-01T19:00:49.611Z,425.20
2018-01-01T19:03:17.073Z,445.27
2018-01-01T19:05:44.526Z,442.83
2018-01-01T19:08:11.979Z,447.10
2018-01-01T19:10:39.442Z,470.27
2018-01-01T19:13:06.891Z,477.80
2018-01-01T19:15:34.329Z,465.60
2018-01-01T19:18:02.541Z,466.73
2018-01-01T19:20:29.989Z,493.03
2018-01-01T19:22:57.442Z,486.47
2018-01-01T19:25:24.911Z,470.03
2018-01-01T19:27:52.350Z,443.00
2018-01-01T19:30:19.822Z,432.60
2018-01-01T19:32:47.263Z,433.97
2018-01-01T19:35:14.769Z,436.63
2018-01-01T19:37:42.216Z,431.87
2018-01-01T19:40:09.657Z,409.40
2018-01-01T19:42:37.093Z,438.33
2018-01-01T19:45:04.543Z,427.57
2018-01-01T19:47:31.981Z,440.50
2018-01-01T19:50:00.203Z,428.37
2018-01-01T19:52:27.654Z,443.57
2018-01-01T19:54:55.109Z,444.50
2018-01-01T19:57:22.562Z,458.27
2018-01-01T19:59:50.010Z,459.97
2018-01-01T20:02:17.458Z,462.90
2018-01-01T20:04:44.902Z,474.20
2018-01-01T20:07:12.346Z,471.03
2018-01-01T20:09:40.561Z,476.27
2018-01-01T20:12:08.002Z,471.10
2018-01-01T20:14:35.454Z,474.03
2018-01-01T20:17:02.896Z,462.27
2018-01-01T20:19:31.134Z,466.67
2018-01-01T20:21:58.570Z,476.77
2018-01-01T20:24:26.056Z,494.90
2018-01-01T20:26:53.492Z,523.87
2018-01-01T20:29:20.954Z,556.70
2018-01-01T20:31:48.409Z,535.43
2018-01-01T20:34:15.866Z,517.07
2018-01-01T20:36:43.339Z,514.43
2018-01-01T20:39:10.782Z,562.20
2018-01-01T20:41:38.233Z,540.93
2018-01-01T20:44:05.670Z,493.37
2018-01-01T20:46:33.122Z,493.23
2018-01-01T20:49:00.569Z,475.67
2018-01-01T20:51:28.025Z,480.60
2018-01-01T20:53:55.470Z,479.30
2018-01-01T20:56:23.683Z,494.73
2018-01-01T20:58:51.130Z,488.37
2018-01-01T21:01:18.574Z,498.13
2018-01-01T21:03:46.009Z,553.13
2018-01-01T21:06:14.222Z,541.27
2018-01-01T21:08:41.656Z,500.33
2018-01-01T21:11:09.873Z,542.30
2018-01-01T21:13:37.309Z,554.30
2018-01-01T21:16:04.758Z,515.40
2018-01-01T21:18:32.193Z,532.00
2018-01-01T21:21:00.415Z,583.30
2018-01-01T21:23:27.847Z,575.90
2018-01-01T21:25:55.290Z,565.27
2018-01-01T21:28:22.734Z,524.00
2018-01-01T21:30:50.950Z,515.80
2018-01-01T21:33:18.399Z,518.30
2018-01-01T21:35:45.841Z,521.70
2018-01-01T21:38:13.285Z,527.30
2018-01-01T21:40:41.493Z,529.60
2018-01-01T21:43:08.939Z,509.67
2018-01-01T21:45:36.398Z,489.00
2018-01-01T21:48:03.847Z,491.53
2018-01-01T21:50:31.301Z,499.13
2018-01-01T21:52:58.739Z,494.13
2018-01-01T21:55:26.950Z,493.90
2018-01-01T21:57:54.399Z,488.63
2018-01-01T22:00:21.855Z,475.13
2018-01-01T22:02:49.297Z,485.87
2018-01-01T22:05:16.742Z,506.97
2018-01-01T22:07:44.957Z,522.30
2018-01-01T22:10:12.404Z,517.10
2018-01-01T22:12:39.845Z,513.20
2018-01-01T22:15:07.282Z,512.93
2018-01-01T22:17:35.489Z,505.70
2018-01-01T22:20:02.925Z,505.57
2018-01-01T22:22:31.141Z,475.50
2018-01-01T22:24:58.579Z,469.83
2018-01-01T22:27:26.018Z,474.90
2018-01-01T22:29:53.457Z,458.23
2018-01-01T22:32:21.686Z,474.20
2018-01-01T22:34:49.134Z,476.47
2018-01-01T22:37:16.606Z,450.80
2018-01-01T22:39:44.058Z,444.70
2018-01-01T22:42:11.526Z,432.83
2018-01-01T22:44:38.969Z,443.57
2018-01-01T22:47:06.415Z,448.03
2018-01-01T22:49:33.873Z,451.47
2018-01-01T22:52:01.318Z,445.47
2018-01-01T22:54:28.766Z,431.67
2018-01-01T22:56:56.218Z,442.83
2018-01-01T22:59:23.657Z,412.57
2018-01-01T23:01:51.873Z,414.47
2018-01-01T23:04:19.328Z,397.20
2018-01-01T23:06:46.777Z,426.07
2018-01-01T23:09:14.226Z,448.20
2018-01-01T23:11:41.667Z,436.80
2018-01-01T23:14:09.898Z,422.60
2018-01-01T23:16:37.346Z,431.10
2018-01-01T23:19:04.795Z,425.97
2018-01-01T23:21:32.237Z,426.50
2018-01-01T23:23:59.694Z,438.30
2018-01-01T23:26:27.138Z,437.00
2018-01-01T23:28:54.586Z,438.33
2018-01-01T23:31:22.790Z,455.23
2018-01-01T23:33:50.244Z,451.50
2018-01-01T23:36:17.677Z,449.50
2018-01-01T23:38:45.889Z,443.40
2018-01-01T23:41:13.331Z,437.00
2018-01-01T23:43:40.779Z,431.80
2018-01-01T23:46:08.213Z,449.23
2018-01-01T23:48:36.430Z,434.57
2018-01-01T23:51:03.870Z,454.47
2018-01-01T23:53:31.317Z,442.53
2018-01-01T23:55:58.775Z,433.23
2018-01-01T23:58:26.218Z,417.90
